This is the latest recevied weather packets stored in our database for station/object K7VLL. If no packets are shown the sender has not sent any weather packets the latest 10 day(s).
| Time | Temp. | Humidity | Pressure | Rain* | Wind** | Luminosity | Snow |
|---|---|---|---|---|---|---|---|
| 1777691352 | 25.56° C | 18% | 1087.3 hPa | 0 mm | - | 0 W/m² | - |
| 1777689550 | 26.11° C | 18% | 1086.9 hPa | 0 mm | - | 0 W/m² | - |
| 1777687749 | 26.67° C | 17% | 1086.3 hPa | 0 mm | - | 2 W/m² | - |
| 1777685949 | 27.22° C | 17% | 1086.2 hPa | 0 mm | - | 15 W/m² | - |
| 1777684147 | 27.78° C | 16% | 1086.1 hPa | 0 mm | - | 26 W/m² | - |
| 1777682346 | 28.89° C | 15% | 1085.8 hPa | 0 mm | - | 33 W/m² | - |
| 1777680547 | 30° C | 13% | 1085.9 hPa | 0 mm | - | 180 W/m² | - |
| 1777678744 | 30° C | 15% | 1085.9 hPa | 0 mm | - | 264 W/m² | - |
| 1777676939 | 31.67° C | 12% | 1086.1 hPa | 0 mm | - | 352 W/m² | - |
| 1777675134 | 30.56° C | 15% | 1086.3 hPa | 0 mm | - | 433 W/m² | - |
| 1777673333 | 30.56° C | 15% | 1086.8 hPa | 0 mm | - | 510 W/m² | - |
| 1777671533 | 30.56° C | 16% | 1087.2 hPa | 0 mm | - | 573 W/m² | - |
| 1777669732 | 28.89° C | 17% | 1087.7 hPa | 0 mm | - | 634 W/m² | - |
| 1777667929 | 29.44° C | 17% | 1087.9 hPa | 0 mm | - | 680 W/m² | - |
| 1777666128 | 28.33° C | 19% | 1088.6 hPa | 0 mm | - | 715 W/m² | - |
| 1777664324 | 28.33° C | 18% | 1088.8 hPa | 0 mm | - | 729 W/m² | - |
| 1777662519 | 27.78° C | 20% | 1089.1 hPa | 0 mm | - | 733 W/m² | - |
| 1777660718 | 27.22° C | 21% | 1089.5 hPa | 0 mm | - | 718 W/m² | - |
| 1777658917 | 25.56° C | 23% | 1089.9 hPa | 0 mm | - | 687 W/m² | - |
| 1777657116 | 25.56° C | 26% | 1090.3 hPa | 0 mm | - | 640 W/m² | - |
| 1777655312 | 24.44° C | 27% | 1090.1 hPa | 0 mm | - | 581 W/m² | - |
| 1777653506 | 23.89° C | 31% | 1090 hPa | 0 mm | - | 505 W/m² | - |
| 1777651705 | 21.67° C | 37% | 1090.1 hPa | 0 mm | - | 314 W/m² | - |
| 1777649905 | 20.56° C | 41% | 1089.9 hPa | 0 mm | - | 42 W/m² | - |
| 1777648101 | 20° C | 45% | 1089.5 hPa | 0 mm | - | 38 W/m² | - |
* Rain latest hour (hover to see other rain measurements)
** Current wind speed in m/s (hover to see current wind gust speed)